sensor_id;sensor_type;location;lat;lon;timestamp;P1;durP1;ratioP1;P2;durP2;ratioP2
43606;SDS011;29197;44.788;10.366;2023-07-22T00:00:19;6.90;;;3.22;;
43606;SDS011;29197;44.788;10.366;2023-07-22T00:03:10;3.78;;;2.58;;
43606;SDS011;29197;44.788;10.366;2023-07-22T00:06:02;5.18;;;2.85;;
43606;SDS011;29197;44.788;10.366;2023-07-22T00:08:52;5.03;;;2.80;;
43606;SDS011;29197;44.788;10.366;2023-07-22T00:11:41;4.95;;;2.60;;
43606;SDS011;29197;44.788;10.366;2023-07-22T00:14:30;5.85;;;2.80;;
43606;SDS011;29197;44.788;10.366;2023-07-22T00:17:19;6.00;;;2.65;;
43606;SDS011;29197;44.788;10.366;2023-07-22T00:20:11;3.00;;;2.22;;
43606;SDS011;29197;44.788;10.366;2023-07-22T00:23:00;3.13;;;2.40;;
43606;SDS011;29197;44.788;10.366;2023-07-22T00:25:49;4.55;;;2.33;;
43606;SDS011;29197;44.788;10.366;2023-07-22T00:28:39;5.07;;;2.72;;
43606;SDS011;29197;44.788;10.366;2023-07-22T00:31:30;3.55;;;2.58;;
43606;SDS011;29197;44.788;10.366;2023-07-22T00:34:19;4.25;;;2.80;;
43606;SDS011;29197;44.788;10.366;2023-07-22T00:37:10;4.53;;;2.53;;
43606;SDS011;29197;44.788;10.366;2023-07-22T00:39:58;5.65;;;2.72;;
43606;SDS011;29197;44.788;10.366;2023-07-22T00:42:48;4.88;;;2.60;;
43606;SDS011;29197;44.788;10.366;2023-07-22T00:45:37;3.47;;;2.28;;
43606;SDS011;29197;44.788;10.366;2023-07-22T00:48:26;2.92;;;2.38;;
43606;SDS011;29197;44.788;10.366;2023-07-22T00:51:16;4.25;;;2.33;;
43606;SDS011;29197;44.788;10.366;2023-07-22T00:54:07;3.08;;;2.38;;
43606;SDS011;29197;44.788;10.366;2023-07-22T00:56:56;5.82;;;2.35;;
43606;SDS011;29197;44.788;10.366;2023-07-22T00:59:45;4.25;;;2.65;;
43606;SDS011;29197;44.788;10.366;2023-07-22T01:02:34;4.07;;;2.50;;
43606;SDS011;29197;44.788;10.366;2023-07-22T01:05:23;3.75;;;2.90;;
43606;SDS011;29197;44.788;10.366;2023-07-22T01:08:13;2.97;;;2.22;;
43606;SDS011;29197;44.788;10.366;2023-07-22T01:11:03;3.45;;;2.10;;
43606;SDS011;29197;44.788;10.366;2023-07-22T01:13:52;3.78;;;2.55;;
43606;SDS011;29197;44.788;10.366;2023-07-22T01:16:44;3.38;;;2.42;;
43606;SDS011;29197;44.788;10.366;2023-07-22T01:19:33;4.53;;;2.28;;
43606;SDS011;29197;44.788;10.366;2023-07-22T01:22:22;6.00;;;2.30;;
43606;SDS011;29197;44.788;10.366;2023-07-22T01:25:13;4.53;;;2.53;;
43606;SDS011;29197;44.788;10.366;2023-07-22T01:28:02;5.32;;;2.60;;
43606;SDS011;29197;44.788;10.366;2023-07-22T01:30:52;3.45;;;2.45;;
43606;SDS011;29197;44.788;10.366;2023-07-22T01:33:41;4.43;;;2.95;;
43606;SDS011;29197;44.788;10.366;2023-07-22T01:36:30;2.70;;;2.08;;
43606;SDS011;29197;44.788;10.366;2023-07-22T01:39:19;4.10;;;2.55;;
43606;SDS011;29197;44.788;10.366;2023-07-22T01:42:10;3.85;;;2.10;;
43606;SDS011;29197;44.788;10.366;2023-07-22T01:44:58;3.45;;;2.47;;
43606;SDS011;29197;44.788;10.366;2023-07-22T01:47:47;4.47;;;2.13;;
43606;SDS011;29197;44.788;10.366;2023-07-22T01:50:36;2.95;;;2.20;;
43606;SDS011;29197;44.788;10.366;2023-07-22T01:53:25;3.72;;;2.20;;
43606;SDS011;29197;44.788;10.366;2023-07-22T01:56:14;6.05;;;1.92;;
43606;SDS011;29197;44.788;10.366;2023-07-22T01:59:04;3.75;;;1.85;;
43606;SDS011;29197;44.788;10.366;2023-07-22T02:01:53;3.15;;;1.98;;
43606;SDS011;29197;44.788;10.366;2023-07-22T02:04:42;3.47;;;2.42;;
43606;SDS011;29197;44.788;10.366;2023-07-22T02:07:31;4.10;;;2.70;;
43606;SDS011;29197;44.788;10.366;2023-07-22T02:10:20;5.57;;;2.47;;
43606;SDS011;29197;44.788;10.366;2023-07-22T02:13:09;4.47;;;2.35;;
43606;SDS011;29197;44.788;10.366;2023-07-22T02:15:59;2.92;;;2.38;;
43606;SDS011;29197;44.788;10.366;2023-07-22T02:18:48;3.70;;;2.13;;
43606;SDS011;29197;44.788;10.366;2023-07-22T02:21:38;2.55;;;1.90;;
43606;SDS011;29197;44.788;10.366;2023-07-22T02:24:26;3.97;;;2.03;;
43606;SDS011;29197;44.788;10.366;2023-07-22T02:27:15;5.60;;;2.05;;
43606;SDS011;29197;44.788;10.366;2023-07-22T02:30:05;4.13;;;2.50;;
43606;SDS011;29197;44.788;10.366;2023-07-22T02:32:58;3.33;;;2.20;;
43606;SDS011;29197;44.788;10.366;2023-07-22T02:35:47;2.85;;;2.13;;
43606;SDS011;29197;44.788;10.366;2023-07-22T02:38:36;3.00;;;2.40;;
43606;SDS011;29197;44.788;10.366;2023-07-22T02:41:24;2.85;;;1.95;;
43606;SDS011;29197;44.788;10.366;2023-07-22T02:44:13;3.22;;;2.35;;
43606;SDS011;29197;44.788;10.366;2023-07-22T02:47:02;2.88;;;2.17;;
43606;SDS011;29197;44.788;10.366;2023-07-22T02:49:52;3.85;;;3.10;;
43606;SDS011;29197;44.788;10.366;2023-07-22T02:52:41;3.17;;;2.20;;
43606;SDS011;29197;44.788;10.366;2023-07-22T02:55:29;4.95;;;3.58;;
43606;SDS011;29197;44.788;10.366;2023-07-22T02:58:18;4.47;;;2.60;;
43606;SDS011;29197;44.788;10.366;2023-07-22T03:01:07;3.45;;;2.40;;
43606;SDS011;29197;44.788;10.366;2023-07-22T03:03:57;3.63;;;2.40;;
43606;SDS011;29197;44.788;10.366;2023-07-22T03:06:47;3.35;;;2.35;;
43606;SDS011;29197;44.788;10.366;2023-07-22T03:09:36;4.45;;;2.97;;
43606;SDS011;29197;44.788;10.366;2023-07-22T03:12:25;5.13;;;2.45;;
43606;SDS011;29197;44.788;10.366;2023-07-22T03:15:14;3.95;;;2.58;;
43606;SDS011;29197;44.788;10.366;2023-07-22T03:18:02;5.03;;;2.58;;
43606;SDS011;29197;44.788;10.366;2023-07-22T03:20:53;4.30;;;2.83;;
43606;SDS011;29197;44.788;10.366;2023-07-22T03:23:43;5.93;;;3.33;;
43606;SDS011;29197;44.788;10.366;2023-07-22T03:26:32;5.35;;;3.22;;
43606;SDS011;29197;44.788;10.366;2023-07-22T03:29:21;3.70;;;2.83;;
43606;SDS011;29197;44.788;10.366;2023-07-22T03:32:11;3.70;;;2.58;;
43606;SDS011;29197;44.788;10.366;2023-07-22T03:34:59;5.00;;;2.78;;
43606;SDS011;29197;44.788;10.366;2023-07-22T03:37:49;5.70;;;2.92;;
43606;SDS011;29197;44.788;10.366;2023-07-22T03:40:39;5.20;;;3.40;;
43606;SDS011;29197;44.788;10.366;2023-07-22T03:43:28;4.57;;;3.40;;
43606;SDS011;29197;44.788;10.366;2023-07-22T03:46:17;4.85;;;3.60;;
43606;SDS011;29197;44.788;10.366;2023-07-22T03:49:06;5.25;;;3.80;;
43606;SDS011;29197;44.788;10.366;2023-07-22T03:51:55;4.70;;;3.42;;
43606;SDS011;29197;44.788;10.366;2023-07-22T03:54:43;3.72;;;2.60;;
43606;SDS011;29197;44.788;10.366;2023-07-22T03:57:33;5.30;;;3.30;;
43606;SDS011;29197;44.788;10.366;2023-07-22T04:00:22;7.38;;;3.92;;
43606;SDS011;29197;44.788;10.366;2023-07-22T04:03:11;6.28;;;4.68;;
43606;SDS011;29197;44.788;10.366;2023-07-22T04:06:00;6.18;;;3.38;;
43606;SDS011;29197;44.788;10.366;2023-07-22T04:08:49;7.60;;;4.18;;
43606;SDS011;29197;44.788;10.366;2023-07-22T04:11:38;5.28;;;4.10;;
43606;SDS011;29197;44.788;10.366;2023-07-22T04:14:28;7.40;;;4.63;;
43606;SDS011;29197;44.788;10.366;2023-07-22T04:17:17;5.78;;;4.22;;
43606;SDS011;29197;44.788;10.366;2023-07-22T04:20:06;7.00;;;4.05;;
43606;SDS011;29197;44.788;10.366;2023-07-22T04:22:56;6.47;;;4.53;;
43606;SDS011;29197;44.788;10.366;2023-07-22T04:25:45;5.25;;;3.90;;
43606;SDS011;29197;44.788;10.366;2023-07-22T04:28:33;5.30;;;3.55;;
43606;SDS011;29197;44.788;10.366;2023-07-22T04:31:24;7.65;;;4.65;;
43606;SDS011;29197;44.788;10.366;2023-07-22T04:34:12;9.57;;;5.43;;
43606;SDS011;29197;44.788;10.366;2023-07-22T04:37:01;7.18;;;4.00;;
43606;SDS011;29197;44.788;10.366;2023-07-22T04:39:50;6.22;;;4.15;;
43606;SDS011;29197;44.788;10.366;2023-07-22T04:42:39;8.23;;;4.85;;
43606;SDS011;29197;44.788;10.366;2023-07-22T04:45:28;8.48;;;4.47;;
43606;SDS011;29197;44.788;10.366;2023-07-22T04:48:19;10.93;;;5.45;;
43606;SDS011;29197;44.788;10.366;2023-07-22T04:51:10;8.15;;;5.32;;
43606;SDS011;29197;44.788;10.366;2023-07-22T04:53:58;7.60;;;3.88;;
43606;SDS011;29197;44.788;10.366;2023-07-22T04:56:47;8.52;;;5.72;;
43606;SDS011;29197;44.788;10.366;2023-07-22T04:59:36;7.47;;;4.80;;
43606;SDS011;29197;44.788;10.366;2023-07-22T05:02:25;4.55;;;3.20;;
43606;SDS011;29197;44.788;10.366;2023-07-22T05:05:15;6.40;;;4.40;;
43606;SDS011;29197;44.788;10.366;2023-07-22T05:08:04;6.15;;;4.10;;
43606;SDS011;29197;44.788;10.366;2023-07-22T05:10:54;4.18;;;3.10;;
43606;SDS011;29197;44.788;10.366;2023-07-22T05:13:42;10.63;;;6.60;;
43606;SDS011;29197;44.788;10.366;2023-07-22T05:16:31;5.30;;;4.40;;
43606;SDS011;29197;44.788;10.366;2023-07-22T05:19:20;6.25;;;4.63;;
43606;SDS011;29197;44.788;10.366;2023-07-22T05:22:10;8.82;;;5.88;;
43606;SDS011;29197;44.788;10.366;2023-07-22T05:24:59;10.35;;;6.47;;
43606;SDS011;29197;44.788;10.366;2023-07-22T05:27:47;10.18;;;7.30;;
43606;SDS011;29197;44.788;10.366;2023-07-22T05:30:37;7.95;;;5.85;;
43606;SDS011;29197;44.788;10.366;2023-07-22T05:33:26;21.63;;;8.98;;
43606;SDS011;29197;44.788;10.366;2023-07-22T05:36:15;10.80;;;8.00;;
43606;SDS011;29197;44.788;10.366;2023-07-22T05:39:05;5.60;;;3.97;;
43606;SDS011;29197;44.788;10.366;2023-07-22T05:41:53;13.90;;;8.85;;
43606;SDS011;29197;44.788;10.366;2023-07-22T05:44:42;10.33;;;6.33;;
43606;SDS011;29197;44.788;10.366;2023-07-22T05:47:31;10.93;;;6.78;;
43606;SDS011;29197;44.788;10.366;2023-07-22T05:50:20;8.20;;;5.10;;
43606;SDS011;29197;44.788;10.366;2023-07-22T05:53:09;9.20;;;6.15;;
43606;SDS011;29197;44.788;10.366;2023-07-22T05:55:59;10.07;;;6.03;;
43606;SDS011;29197;44.788;10.366;2023-07-22T05:58:48;14.20;;;7.80;;
43606;SDS011;29197;44.788;10.366;2023-07-22T06:01:37;10.73;;;6.57;;
43606;SDS011;29197;44.788;10.366;2023-07-22T06:04:26;13.30;;;7.13;;
43606;SDS011;29197;44.788;10.366;2023-07-22T06:07:15;20.38;;;8.75;;
43606;SDS011;29197;44.788;10.366;2023-07-22T06:10:04;19.50;;;10.15;;
43606;SDS011;29197;44.788;10.366;2023-07-22T06:12:55;13.95;;;7.10;;
43606;SDS011;29197;44.788;10.366;2023-07-22T06:15:44;11.73;;;6.80;;
43606;SDS011;29197;44.788;10.366;2023-07-22T06:18:32;17.02;;;9.90;;
43606;SDS011;29197;44.788;10.366;2023-07-22T06:21:21;15.27;;;8.77;;
43606;SDS011;29197;44.788;10.366;2023-07-22T06:24:10;18.02;;;10.57;;
43606;SDS011;29197;44.788;10.366;2023-07-22T06:26:59;13.10;;;8.15;;
43606;SDS011;29197;44.788;10.366;2023-07-22T06:29:49;16.90;;;9.52;;
43606;SDS011;29197;44.788;10.366;2023-07-22T06:32:38;19.13;;;10.07;;
43606;SDS011;29197;44.788;10.366;2023-07-22T06:35:28;15.18;;;10.32;;
43606;SDS011;29197;44.788;10.366;2023-07-22T06:38:17;19.83;;;11.77;;
43606;SDS011;29197;44.788;10.366;2023-07-22T06:41:06;17.30;;;10.32;;
43606;SDS011;29197;44.788;10.366;2023-07-22T06:43:55;15.88;;;8.68;;
43606;SDS011;29197;44.788;10.366;2023-07-22T06:46:45;15.07;;;9.35;;
43606;SDS011;29197;44.788;10.366;2023-07-22T06:49:34;16.30;;;9.82;;
43606;SDS011;29197;44.788;10.366;2023-07-22T06:52:23;12.75;;;7.97;;
43606;SDS011;29197;44.788;10.366;2023-07-22T06:55:12;11.52;;;7.75;;
43606;SDS011;29197;44.788;10.366;2023-07-22T06:58:00;18.48;;;9.70;;
43606;SDS011;29197;44.788;10.366;2023-07-22T07:00:52;10.20;;;6.22;;
43606;SDS011;29197;44.788;10.366;2023-07-22T07:03:43;15.98;;;7.78;;
43606;SDS011;29197;44.788;10.366;2023-07-22T07:06:32;15.50;;;6.88;;
43606;SDS011;29197;44.788;10.366;2023-07-22T07:09:21;11.77;;;7.07;;
43606;SDS011;29197;44.788;10.366;2023-07-22T07:12:10;12.70;;;8.30;;
43606;SDS011;29197;44.788;10.366;2023-07-22T07:14:59;13.50;;;8.23;;
43606;SDS011;29197;44.788;10.366;2023-07-22T07:17:48;13.23;;;8.57;;
43606;SDS011;29197;44.788;10.366;2023-07-22T07:20:39;16.98;;;9.55;;
43606;SDS011;29197;44.788;10.366;2023-07-22T07:23:27;15.48;;;9.63;;
43606;SDS011;29197;44.788;10.366;2023-07-22T07:26:16;16.95;;;9.27;;
43606;SDS011;29197;44.788;10.366;2023-07-22T07:29:05;12.43;;;7.95;;
43606;SDS011;29197;44.788;10.366;2023-07-22T07:31:54;18.58;;;10.57;;
43606;SDS011;29197;44.788;10.366;2023-07-22T07:34:43;13.68;;;8.55;;
43606;SDS011;29197;44.788;10.366;2023-07-22T07:37:33;16.77;;;8.65;;
43606;SDS011;29197;44.788;10.366;2023-07-22T07:40:22;15.02;;;8.50;;
43606;SDS011;29197;44.788;10.366;2023-07-22T07:43:13;15.77;;;9.98;;
43606;SDS011;29197;44.788;10.366;2023-07-22T07:46:14;18.23;;;10.07;;
43606;SDS011;29197;44.788;10.366;2023-07-22T07:49:05;21.75;;;11.98;;
43606;SDS011;29197;44.788;10.366;2023-07-22T07:51:54;16.55;;;9.95;;
43606;SDS011;29197;44.788;10.366;2023-07-22T07:54:44;17.02;;;9.50;;
43606;SDS011;29197;44.788;10.366;2023-07-22T07:57:33;18.38;;;9.05;;
43606;SDS011;29197;44.788;10.366;2023-07-22T08:00:22;14.38;;;8.15;;
43606;SDS011;29197;44.788;10.366;2023-07-22T08:03:11;15.82;;;8.88;;
43606;SDS011;29197;44.788;10.366;2023-07-22T08:06:00;13.23;;;7.75;;
43606;SDS011;29197;44.788;10.366;2023-07-22T08:08:48;9.32;;;6.18;;
43606;SDS011;29197;44.788;10.366;2023-07-22T08:11:38;13.10;;;7.05;;
43606;SDS011;29197;44.788;10.366;2023-07-22T08:14:27;12.75;;;6.05;;
43606;SDS011;29197;44.788;10.366;2023-07-22T08:17:17;13.10;;;5.85;;
43606;SDS011;29197;44.788;10.366;2023-07-22T08:20:06;9.00;;;5.68;;
43606;SDS011;29197;44.788;10.366;2023-07-22T08:22:57;8.07;;;5.00;;
43606;SDS011;29197;44.788;10.366;2023-07-22T08:25:45;8.52;;;4.38;;
43606;SDS011;29197;44.788;10.366;2023-07-22T08:28:35;8.88;;;4.47;;
43606;SDS011;29197;44.788;10.366;2023-07-22T08:31:24;9.70;;;3.90;;
43606;SDS011;29197;44.788;10.366;2023-07-22T08:34:12;8.57;;;3.88;;
43606;SDS011;29197;44.788;10.366;2023-07-22T08:37:01;7.35;;;4.18;;
43606;SDS011;29197;44.788;10.366;2023-07-22T08:39:50;9.18;;;4.68;;
43606;SDS011;29197;44.788;10.366;2023-07-22T08:42:38;9.85;;;4.60;;
43606;SDS011;29197;44.788;10.366;2023-07-22T08:45:31;5.90;;;3.58;;
43606;SDS011;29197;44.788;10.366;2023-07-22T08:48:24;11.25;;;5.78;;
43606;SDS011;29197;44.788;10.366;2023-07-22T08:51:15;11.02;;;5.53;;
43606;SDS011;29197;44.788;10.366;2023-07-22T08:54:05;11.65;;;6.80;;
43606;SDS011;29197;44.788;10.366;2023-07-22T08:56:58;8.70;;;4.43;;
43606;SDS011;29197;44.788;10.366;2023-07-22T08:59:46;9.93;;;5.05;;
43606;SDS011;29197;44.788;10.366;2023-07-22T09:02:37;7.32;;;4.40;;
43606;SDS011;29197;44.788;10.366;2023-07-22T09:05:26;9.65;;;4.63;;
43606;SDS011;29197;44.788;10.366;2023-07-22T09:08:16;5.88;;;3.78;;
43606;SDS011;29197;44.788;10.366;2023-07-22T09:11:05;11.13;;;6.40;;
43606;SDS011;29197;44.788;10.366;2023-07-22T09:13:54;6.18;;;4.18;;
43606;SDS011;29197;44.788;10.366;2023-07-22T09:16:44;5.97;;;4.30;;
43606;SDS011;29197;44.788;10.366;2023-07-22T09:19:34;8.18;;;4.20;;
43606;SDS011;29197;44.788;10.366;2023-07-22T09:22:25;7.50;;;4.28;;
43606;SDS011;29197;44.788;10.366;2023-07-22T09:25:17;10.60;;;4.13;;
43606;SDS011;29197;44.788;10.366;2023-07-22T09:28:06;6.22;;;4.13;;
43606;SDS011;29197;44.788;10.366;2023-07-22T09:31:00;15.20;;;7.18;;
43606;SDS011;29197;44.788;10.366;2023-07-22T09:33:50;6.80;;;4.70;;
43606;SDS011;29197;44.788;10.366;2023-07-22T09:36:54;7.25;;;4.18;;
43606;SDS011;29197;44.788;10.366;2023-07-22T09:39:45;10.60;;;4.82;;
43606;SDS011;29197;44.788;10.366;2023-07-22T09:42:36;6.60;;;3.70;;
43606;SDS011;29197;44.788;10.366;2023-07-22T09:45:25;9.35;;;4.40;;
43606;SDS011;29197;44.788;10.366;2023-07-22T09:48:14;9.95;;;5.10;;
43606;SDS011;29197;44.788;10.366;2023-07-22T09:51:04;9.68;;;3.80;;
43606;SDS011;29197;44.788;10.366;2023-07-22T09:54:00;11.25;;;4.22;;
43606;SDS011;29197;44.788;10.366;2023-07-22T09:56:50;8.45;;;3.50;;
43606;SDS011;29197;44.788;10.366;2023-07-22T09:59:39;6.88;;;3.72;;
43606;SDS011;29197;44.788;10.366;2023-07-22T10:02:27;5.38;;;3.38;;
43606;SDS011;29197;44.788;10.366;2023-07-22T10:05:17;6.18;;;3.28;;
43606;SDS011;29197;44.788;10.366;2023-07-22T10:08:06;9.50;;;3.20;;
43606;SDS011;29197;44.788;10.366;2023-07-22T10:10:58;7.00;;;3.72;;
43606;SDS011;29197;44.788;10.366;2023-07-22T10:13:48;9.02;;;3.60;;
43606;SDS011;29197;44.788;10.366;2023-07-22T10:16:37;8.40;;;3.17;;
43606;SDS011;29197;44.788;10.366;2023-07-22T10:19:26;7.00;;;3.42;;
43606;SDS011;29197;44.788;10.366;2023-07-22T10:22:15;7.35;;;3.42;;
43606;SDS011;29197;44.788;10.366;2023-07-22T10:25:04;6.63;;;2.90;;
43606;SDS011;29197;44.788;10.366;2023-07-22T10:27:56;9.70;;;3.95;;
43606;SDS011;29197;44.788;10.366;2023-07-22T10:30:44;6.80;;;2.88;;
43606;SDS011;29197;44.788;10.366;2023-07-22T10:33:33;6.00;;;3.13;;
43606;SDS011;29197;44.788;10.366;2023-07-22T10:36:22;5.30;;;2.80;;
43606;SDS011;29197;44.788;10.366;2023-07-22T10:39:24;8.43;;;3.05;;
43606;SDS011;29197;44.788;10.366;2023-07-22T10:42:23;6.55;;;3.38;;
43606;SDS011;29197;44.788;10.366;2023-07-22T10:45:24;6.15;;;3.17;;
43606;SDS011;29197;44.788;10.366;2023-07-22T10:48:13;12.48;;;3.00;;
43606;SDS011;29197;44.788;10.366;2023-07-22T10:51:04;8.82;;;3.80;;
43606;SDS011;29197;44.788;10.366;2023-07-22T10:53:54;7.18;;;4.07;;
43606;SDS011;29197;44.788;10.366;2023-07-22T10:56:43;5.35;;;3.45;;
43606;SDS011;29197;44.788;10.366;2023-07-22T10:59:33;8.23;;;3.45;;
43606;SDS011;29197;44.788;10.366;2023-07-22T11:02:24;5.45;;;3.10;;
43606;SDS011;29197;44.788;10.366;2023-07-22T11:05:15;5.95;;;3.28;;
43606;SDS011;29197;44.788;10.366;2023-07-22T11:08:05;6.25;;;3.13;;
43606;SDS011;29197;44.788;10.366;2023-07-22T11:10:57;6.57;;;2.97;;
43606;SDS011;29197;44.788;10.366;2023-07-22T11:13:48;6.05;;;2.85;;
43606;SDS011;29197;44.788;10.366;2023-07-22T11:16:39;7.53;;;3.58;;
43606;SDS011;29197;44.788;10.366;2023-07-22T11:19:29;5.82;;;3.45;;
43606;SDS011;29197;44.788;10.366;2023-07-22T11:22:18;6.35;;;3.42;;
43606;SDS011;29197;44.788;10.366;2023-07-22T11:25:07;3.95;;;3.25;;
43606;SDS011;29197;44.788;10.366;2023-07-22T11:27:56;4.75;;;2.70;;
43606;SDS011;29197;44.788;10.366;2023-07-22T11:30:46;5.63;;;3.17;;
43606;SDS011;29197;44.788;10.366;2023-07-22T11:33:39;9.88;;;3.63;;
43606;SDS011;29197;44.788;10.366;2023-07-22T11:36:31;7.53;;;3.17;;
43606;SDS011;29197;44.788;10.366;2023-07-22T11:39:23;5.13;;;3.30;;
43606;SDS011;29197;44.788;10.366;2023-07-22T11:42:12;6.30;;;3.50;;
43606;SDS011;29197;44.788;10.366;2023-07-22T11:45:01;4.72;;;3.38;;
43606;SDS011;29197;44.788;10.366;2023-07-22T11:47:50;6.57;;;3.13;;
43606;SDS011;29197;44.788;10.366;2023-07-22T11:50:39;6.40;;;3.53;;
43606;SDS011;29197;44.788;10.366;2023-07-22T11:53:29;4.82;;;3.10;;
43606;SDS011;29197;44.788;10.366;2023-07-22T11:56:18;12.70;;;3.90;;
43606;SDS011;29197;44.788;10.366;2023-07-22T11:59:07;12.00;;;4.00;;
43606;SDS011;29197;44.788;10.366;2023-07-22T12:01:56;6.40;;;3.88;;
43606;SDS011;29197;44.788;10.366;2023-07-22T12:04:51;13.00;;;4.65;;
43606;SDS011;29197;44.788;10.366;2023-07-22T12:07:40;8.05;;;4.43;;
43606;SDS011;29197;44.788;10.366;2023-07-22T12:10:30;11.90;;;4.63;;
43606;SDS011;29197;44.788;10.366;2023-07-22T12:13:19;10.40;;;5.07;;
43606;SDS011;29197;44.788;10.366;2023-07-22T12:16:07;9.70;;;4.63;;
43606;SDS011;29197;44.788;10.366;2023-07-22T12:18:56;6.15;;;3.75;;
43606;SDS011;29197;44.788;10.366;2023-07-22T12:21:44;8.98;;;3.90;;
43606;SDS011;29197;44.788;10.366;2023-07-22T12:24:33;7.10;;;4.25;;
43606;SDS011;29197;44.788;10.366;2023-07-22T12:27:23;8.00;;;3.90;;
43606;SDS011;29197;44.788;10.366;2023-07-22T12:30:12;10.90;;;3.97;;
43606;SDS011;29197;44.788;10.366;2023-07-22T12:33:05;6.55;;;4.15;;
43606;SDS011;29197;44.788;10.366;2023-07-22T12:35:54;7.82;;;4.57;;
43606;SDS011;29197;44.788;10.366;2023-07-22T12:38:43;10.52;;;5.18;;
43606;SDS011;29197;44.788;10.366;2023-07-22T12:41:32;7.78;;;4.82;;
43606;SDS011;29197;44.788;10.366;2023-07-22T12:44:21;11.13;;;5.10;;
43606;SDS011;29197;44.788;10.366;2023-07-22T12:47:10;6.95;;;4.10;;
43606;SDS011;29197;44.788;10.366;2023-07-22T12:49:59;8.00;;;4.03;;
43606;SDS011;29197;44.788;10.366;2023-07-22T12:52:47;9.15;;;4.43;;
43606;SDS011;29197;44.788;10.366;2023-07-22T12:55:36;7.07;;;4.05;;
43606;SDS011;29197;44.788;10.366;2023-07-22T12:58:24;6.28;;;4.45;;
43606;SDS011;29197;44.788;10.366;2023-07-22T13:01:14;7.97;;;3.78;;
43606;SDS011;29197;44.788;10.366;2023-07-22T13:04:03;6.57;;;4.40;;
43606;SDS011;29197;44.788;10.366;2023-07-22T13:06:52;6.40;;;4.47;;
43606;SDS011;29197;44.788;10.366;2023-07-22T13:09:40;9.20;;;4.65;;
43606;SDS011;29197;44.788;10.366;2023-07-22T13:12:30;8.10;;;4.03;;
43606;SDS011;29197;44.788;10.366;2023-07-22T13:15:18;7.03;;;4.10;;
43606;SDS011;29197;44.788;10.366;2023-07-22T13:18:08;7.88;;;4.85;;
43606;SDS011;29197;44.788;10.366;2023-07-22T13:21:00;7.55;;;4.53;;
43606;SDS011;29197;44.788;10.366;2023-07-22T13:23:49;6.20;;;4.30;;
43606;SDS011;29197;44.788;10.366;2023-07-22T13:26:37;9.20;;;5.20;;
43606;SDS011;29197;44.788;10.366;2023-07-22T13:29:26;9.50;;;5.05;;
43606;SDS011;29197;44.788;10.366;2023-07-22T13:32:15;11.75;;;5.40;;
43606;SDS011;29197;44.788;10.366;2023-07-22T13:35:05;7.13;;;4.07;;
43606;SDS011;29197;44.788;10.366;2023-07-22T13:37:55;9.57;;;4.82;;
43606;SDS011;29197;44.788;10.366;2023-07-22T13:40:44;12.57;;;5.05;;
43606;SDS011;29197;44.788;10.366;2023-07-22T13:43:32;8.68;;;4.43;;
43606;SDS011;29197;44.788;10.366;2023-07-22T13:46:22;7.65;;;4.95;;
43606;SDS011;29197;44.788;10.366;2023-07-22T13:49:10;9.18;;;5.30;;
43606;SDS011;29197;44.788;10.366;2023-07-22T13:52:00;12.13;;;5.53;;
43606;SDS011;29197;44.788;10.366;2023-07-22T13:54:49;8.23;;;4.93;;
43606;SDS011;29197;44.788;10.366;2023-07-22T13:57:37;6.25;;;4.38;;
43606;SDS011;29197;44.788;10.366;2023-07-22T14:00:26;10.70;;;5.50;;
43606;SDS011;29197;44.788;10.366;2023-07-22T14:03:15;9.05;;;5.30;;
43606;SDS011;29197;44.788;10.366;2023-07-22T14:06:04;6.93;;;4.43;;
43606;SDS011;29197;44.788;10.366;2023-07-22T14:08:54;8.05;;;4.63;;
43606;SDS011;29197;44.788;10.366;2023-07-22T14:11:43;8.68;;;4.93;;
43606;SDS011;29197;44.788;10.366;2023-07-22T14:14:32;5.90;;;4.05;;
43606;SDS011;29197;44.788;10.366;2023-07-22T14:17:21;7.40;;;3.95;;
43606;SDS011;29197;44.788;10.366;2023-07-22T14:20:10;6.38;;;4.07;;
43606;SDS011;29197;44.788;10.366;2023-07-22T14:22:59;7.38;;;4.00;;
43606;SDS011;29197;44.788;10.366;2023-07-22T14:25:49;5.15;;;3.83;;
43606;SDS011;29197;44.788;10.366;2023-07-22T14:28:38;5.45;;;3.88;;
43606;SDS011;29197;44.788;10.366;2023-07-22T14:31:27;6.53;;;4.32;;
43606;SDS011;29197;44.788;10.366;2023-07-22T14:34:16;6.78;;;4.65;;
43606;SDS011;29197;44.788;10.366;2023-07-22T14:37:05;8.48;;;5.32;;
43606;SDS011;29197;44.788;10.366;2023-07-22T14:39:54;8.60;;;4.22;;
43606;SDS011;29197;44.788;10.366;2023-07-22T14:42:44;5.03;;;3.95;;
43606;SDS011;29197;44.788;10.366;2023-07-22T14:45:32;6.13;;;3.95;;
43606;SDS011;29197;44.788;10.366;2023-07-22T14:48:21;6.43;;;4.18;;
43606;SDS011;29197;44.788;10.366;2023-07-22T14:51:09;4.63;;;3.45;;
43606;SDS011;29197;44.788;10.366;2023-07-22T14:53:58;7.60;;;3.95;;
43606;SDS011;29197;44.788;10.366;2023-07-22T14:56:46;6.88;;;3.95;;
43606;SDS011;29197;44.788;10.366;2023-07-22T14:59:36;5.38;;;3.58;;
43606;SDS011;29197;44.788;10.366;2023-07-22T15:02:25;8.00;;;4.00;;
43606;SDS011;29197;44.788;10.366;2023-07-22T15:05:13;5.72;;;3.45;;
43606;SDS011;29197;44.788;10.366;2023-07-22T15:08:02;4.65;;;3.70;;
43606;SDS011;29197;44.788;10.366;2023-07-22T15:10:51;7.10;;;3.80;;
43606;SDS011;29197;44.788;10.366;2023-07-22T15:13:39;6.32;;;3.83;;
43606;SDS011;29197;44.788;10.366;2023-07-22T15:16:30;5.22;;;4.00;;
43606;SDS011;29197;44.788;10.366;2023-07-22T15:19:19;5.68;;;3.90;;
43606;SDS011;29197;44.788;10.366;2023-07-22T15:22:07;6.13;;;3.60;;
43606;SDS011;29197;44.788;10.366;2023-07-22T15:24:56;5.32;;;3.35;;
43606;SDS011;29197;44.788;10.366;2023-07-22T15:27:45;7.40;;;4.25;;
43606;SDS011;29197;44.788;10.366;2023-07-22T15:30:33;5.68;;;3.45;;
43606;SDS011;29197;44.788;10.366;2023-07-22T15:33:23;6.22;;;3.90;;
43606;SDS011;29197;44.788;10.366;2023-07-22T15:36:12;6.38;;;3.80;;
43606;SDS011;29197;44.788;10.366;2023-07-22T15:39:01;7.18;;;5.00;;
43606;SDS011;29197;44.788;10.366;2023-07-22T15:41:50;10.57;;;5.15;;
43606;SDS011;29197;44.788;10.366;2023-07-22T15:44:38;9.25;;;6.00;;
43606;SDS011;29197;44.788;10.366;2023-07-22T15:47:27;10.98;;;6.53;;
43606;SDS011;29197;44.788;10.366;2023-07-22T15:50:17;13.13;;;7.50;;
43606;SDS011;29197;44.788;10.366;2023-07-22T15:53:05;11.38;;;6.10;;
43606;SDS011;29197;44.788;10.366;2023-07-22T15:55:54;11.65;;;6.18;;
43606;SDS011;29197;44.788;10.366;2023-07-22T15:58:42;11.98;;;6.60;;
43606;SDS011;29197;44.788;10.366;2023-07-22T16:01:31;7.95;;;4.60;;
43606;SDS011;29197;44.788;10.366;2023-07-22T16:04:20;10.15;;;5.38;;
43606;SDS011;29197;44.788;10.366;2023-07-22T16:07:10;8.70;;;5.05;;
43606;SDS011;29197;44.788;10.366;2023-07-22T16:09:58;10.00;;;5.05;;
43606;SDS011;29197;44.788;10.366;2023-07-22T16:12:47;7.60;;;4.90;;
43606;SDS011;29197;44.788;10.366;2023-07-22T16:15:35;8.52;;;5.10;;
43606;SDS011;29197;44.788;10.366;2023-07-22T16:18:24;8.32;;;4.68;;
43606;SDS011;29197;44.788;10.366;2023-07-22T16:21:12;13.02;;;5.25;;
43606;SDS011;29197;44.788;10.366;2023-07-22T16:24:03;6.53;;;4.75;;
43606;SDS011;29197;44.788;10.366;2023-07-22T16:26:51;9.30;;;4.28;;
43606;SDS011;29197;44.788;10.366;2023-07-22T16:29:40;7.50;;;4.60;;
43606;SDS011;29197;44.788;10.366;2023-07-22T16:32:29;6.57;;;3.88;;
43606;SDS011;29197;44.788;10.366;2023-07-22T16:35:18;6.82;;;3.88;;
43606;SDS011;29197;44.788;10.366;2023-07-22T16:38:07;6.68;;;4.68;;
43606;SDS011;29197;44.788;10.366;2023-07-22T16:40:57;5.88;;;3.78;;